Terminal Aerodrome Forecast
Issued by NWS

Home | Current Version | Previous Version | Text Only | Print | Product List | Glossary On
Versions: 1 2 3 4 5 6 7 8 9 10 11 12 13 14 15 16 17 18
847
FTUS44 KTSA 260137 AAA
TAFMLC
TAF AMD
KMLC 260137Z 2602/2624 18008KT P6SM SCT025
     FM260900 18008KT P6SM OVC010
     FM261500 17009KT P6SM OVC015
     FM261800 17011G20KT P6SM BKN025
     FM262000 16012G22KT P6SM BKN035=

USA.gov is the U.S. government's official web portal to all federal, state and local government web resources and services.